world map with PSZ marked

PSZ - Airport

This information may not be accurate or current and is not valid for navigation or flight planning. No warranty of fitness for any purpose is made or implied.

flag of Santa Cruzflag of Bolivia

Donate via PayPal

Additional information is available on the NEW Great Circle Mapper

Location
City:  Puerto Suárez, Germán Busch, Santa Cruz, Bolivia
Name:Capitan Av. Salvador Ogaya
ICAO / IATA:SLPS / PSZ

Details
Type:Airport (Aerodrome, Airfield)
Latitude:18°58'31"S (-18.975280)
Longitude:57°49'14"W (-57.820585)
Datum:WGS 1984
Elevation:439 ft (134 m)
Runways:1
Longest:6562 × 118 ft (2000 × 36 m)

Time
Timezone:UTC+30:08 (DST+32:08)
Local Time:

Weather
METAR:SLPS  041400Z 21006KT 8000 FEW017 SCT200 28/23 Q1013
TAF:SLPS  (expired)

Related Locations
Nearby:
Farthest:LLC: 12371 mi / 19909 km
Lal-lo [Cagayan North Intl (Lal-lo Intl)], CAG, PH

Find:

   beyond  
but within

Other Information
Maps:
Sources:

  


 


Great Circle Mapper   Great Circle Mapper
Great Circle Mapper FAQ   Great Circle Mapper FAQ
  Karl's Home Page
KLS˛   KLS˛ Home
   GC on Facebook
Airlines of the World   Airlines of the World
Donate via PayPal


Copyright © 2004-2019, Karl L. Swartz. All rights reserved.
All trademarks mentioned herein belong to their respective owners.

Please see credits for attribution and copyright information.

Karl Swartz <karl@kls2.com>
  Powered by FreeBSD
Valid HTML 4.01!
Labeled with ICRA
hCard Microformat
Geo Microformat